Red Avel — FAE6551 — position and weather

sailwx.info

Track history (hours):
 
Tides and Currents Weather Stations Pressure Air Temp Water Temp Dewpoint Dewpoint Depression Visibility Wind Speed Wind Dir Waves Ship Positions

Red Avel

Last reported at 2017-Aug-31 15:13 UTC. Time now 2017-Sep-20 23:51 UTC.
Position N 47°35' W 003°01'.
Warning: this ship's position is 20 days out of date.

Length 10 m.

Type: Sailing vessel. MMSI: 227498870.

Date/timePositionNaut miles runAvg speedWind from/ knotsBaromVisibWave heightAir tempDewpointWater temp
2017-Aug-31 15:13N 47°35' W 003°01'0 0.4
2017-Aug-31 14:58N 47°35' W 003°02'0 0.1
2017-Aug-31 14:28N 47°35' W 003°02'0 0.0
2017-Aug-29 15:31N 47°35' W 003°01'0 1.9
2017-Aug-29 15:25N 47°35' W 003°01'2 3.8
2017-Aug-29 15:00N 47°34' W 003°01'3 5.5
2017-Aug-29 14:30N 47°31' W 003°01'1 1.4
2017-Aug-29 14:00N 47°30' W 003°02'3 6.1
2017-Aug-29 13:30N 47°34' W 003°02'2 3.7
2017-Aug-29 13:00N 47°32' W 003°00'2 5.0
2017-Aug-29 12:30N 47°30' W 002°58'1 1.8
2017-Aug-29 11:58N 47°29' W 002°57'3 7.1
2017-Aug-29 11:30N 47°32' W 002°59'2 3.6
2017-Aug-29 11:00N 47°34' W 003°01'2 0.0
2017-Aug-27 14:31N 47°35' W 003°01'0 0.0
2017-Aug-27 14:28N 47°35' W 003°02'0 0.5
2017-Aug-27 14:00N 47°35' W 003°01'2 4.7
2017-Aug-27 13:30N 47°33' W 003°00'3 5.2
2017-Aug-27 13:00N 47°30' W 002°59'2 4.0
2017-Aug-27 12:30N 47°29' W 002°58'1 2.8
2017-Aug-27 12:00N 47°27' W 002°57'4 0.2
2017-Aug-26 15:38N 47°24' W 003°02'1 5.9
2017-Aug-26 15:28N 47°25' W 003°03'2 3.1
2017-Aug-26 14:55N 47°25' W 003°05'1 1.5
2017-Aug-26 13:59N 47°26' W 003°06'0 0.8
2017-Aug-26 13:29N 47°27' W 003°07'1 2.3
2017-Aug-26 13:00N 47°27' W 003°08'1 2.1
2017-Aug-26 12:30N 47°28' W 003°09'2 2.5
2017-Aug-26 11:54N 47°29' W 003°10'1 1.6
2017-Aug-26 11:26N 47°30' W 003°10'1 3.1
2017-Aug-26 10:58N 47°31' W 003°11'2 3.4
2017-Aug-26 10:26N 47°33' W 003°12'1 2.8
2017-Aug-26 10:00N 47°34' W 003°13'1 2.8
2017-Aug-26 09:30N 47°36' W 003°13'1 2.4
2017-Aug-26 09:00N 47°37' W 003°13'3 5.1
2017-Aug-26 08:30N 47°39' W 003°12'0 0.5
2017-Aug-26 07:58N 47°40' W 003°12'0 0.0
2017-Aug-26 07:28N 47°40' W 003°12'0 0.0
2017-Aug-26 06:58N 47°40' W 003°12'0 0.0
2017-Aug-26 06:28N 47°40' W 003°12'0 0.0
2017-Aug-26 05:58N 47°40' W 003°12'0 0.0
2017-Aug-26 05:28N 47°40' W 003°12'0 0.0
2017-Aug-26 04:58N 47°40' W 003°12'0 0.0
2017-Aug-26 04:28N 47°40' W 003°12'0 0.0
2017-Aug-26 03:58N 47°40' W 003°12'0 0.0
2017-Aug-26 03:28N 47°40' W 003°12'0 0.0
2017-Aug-26 02:58N 47°40' W 003°12'0 0.0
2017-Aug-26 02:25N 47°40' W 003°12'0 0.0
2017-Aug-26 01:58N 47°40' W 003°12'0 0.0
2017-Aug-26 01:28N 47°40' W 003°12'0 0.0
2017-Aug-26 00:58N 47°40' W 003°12'0 0.0
2017-Aug-26 00:28N 47°40' W 003°12'0 0.0
2017-Aug-25 23:58N 47°40' W 003°12'0 0.0
2017-Aug-25 23:28N 47°40' W 003°12'0 0.0
2017-Aug-25 22:58N 47°40' W 003°12'0 0.0
2017-Aug-25 22:28N 47°40' W 003°12'0 0.0
2017-Aug-25 21:58N 47°40' W 003°12'0 0.0
2017-Aug-25 21:28N 47°40' W 003°12'0 0.0
2017-Aug-25 20:58N 47°40' W 003°12'0 0.0
2017-Aug-25 20:28N 47°40' W 003°12'0 0.0
2017-Aug-25 19:55N 47°40' W 003°12'0 0.0
2017-Aug-25 19:25N 47°40' W 003°12'0 0.0
2017-Aug-25 18:58N 47°40' W 003°12'0 0.0
2017-Aug-25 18:28N 47°40' W 003°12'0 0.0
2017-Aug-25 17:58N 47°40' W 003°12'0 0.0
2017-Aug-25 17:28N 47°40' W 003°12'0 0.0
2017-Aug-25 16:58N 47°40' W 003°12'0 0.0
2017-Aug-25 16:28N 47°40' W 003°12'1 2.6
2017-Aug-25 16:00N 47°38' W 003°13'3 7.0
2017-Aug-25 15:30N 47°38' W 003°18'3 6.8
2017-Aug-25 15:00N 47°36' W 003°22'1 1.6
2017-Aug-25 14:30N 47°36' W 003°21'5 4.9
2017-Aug-25 13:30N 47°36' W 003°14'3 6.7
2017-Aug-25 13:00N 47°33' W 003°11'3 6.8
2017-Aug-25 12:30N 47°30' W 003°09'2 5.0
2017-Aug-25 12:00N 47°28' W 003°07'2 4.0
2017-Aug-25 11:26N 47°27' W 003°04'2 3.7
2017-Aug-25 10:58N 47°28' W 003°02'2 3.4
2017-Aug-25 10:28N 47°30' W 003°02'1 1.3
2017-Aug-25 09:58N 47°30' W 003°01'1 1.1
2017-Aug-25 09:30N 47°31' W 003°01'1 1.7
2017-Aug-25 08:55N 47°32' W 003°01'2 4.6
2017-Aug-25 08:29N 47°34' W 003°01'2 0.1
2017-Aug-24 15:18N 47°35' W 003°01'0 0.0
2017-Aug-24 14:54N 47°35' W 003°01'0 0.0
2017-Aug-24 14:24N 47°35' W 003°01'0 0.0
2017-Aug-24 13:57N 47°35' W 003°01'0 0.0
2017-Aug-24 13:24N 47°35' W 003°01'0 0.0
2017-Aug-24 13:00N 47°35' W 003°01'1 1.4
2017-Aug-24 12:30N 47°35' W 003°01'3 5.4
2017-Aug-24 12:00N 47°32' W 002°59'3 5.5
2017-Aug-24 11:30N 47°30' W 002°58'3 3.0
2017-Aug-24 10:40N 47°27' W 002°57'1 2.5
2017-Aug-24 10:26N 47°27' W 002°58'  
Track history (hours):
 
Tides and Currents Weather Stations Pressure Air Temp Water Temp Dewpoint Dewpoint Depression Visibility Wind Speed Wind Dir Waves Ship Positions

Red Avel

Last reported at 2017-Aug-31 15:13 UTC. Time now 2017-Sep-20 23:51 UTC.
Position N 47°35' W 003°01'.
Warning: this ship's position is 20 days out of date.

Length 10 m.

Type: Sailing vessel. MMSI: 227498870.

Date/timePositionNaut miles runAvg speedWind from/ knotsBaromVisibWave heightAir tempDewpointWater temp
2017-Aug-31 15:13N 47°35' W 003°01'0 0.4
2017-Aug-31 14:58N 47°35' W 003°02'0 0.1
2017-Aug-31 14:28N 47°35' W 003°02'0 0.0
2017-Aug-29 15:31N 47°35' W 003°01'0 1.9
2017-Aug-29 15:25N 47°35' W 003°01'2 3.8
2017-Aug-29 15:00N 47°34' W 003°01'3 5.5
2017-Aug-29 14:30N 47°31' W 003°01'1 1.4
2017-Aug-29 14:00N 47°30' W 003°02'3 6.1
2017-Aug-29 13:30N 47°34' W 003°02'2 3.7
2017-Aug-29 13:00N 47°32' W 003°00'2 5.0
2017-Aug-29 12:30N 47°30' W 002°58'1 1.8
2017-Aug-29 11:58N 47°29' W 002°57'3 7.1
2017-Aug-29 11:30N 47°32' W 002°59'2 3.6
2017-Aug-29 11:00N 47°34' W 003°01'2 0.0
2017-Aug-27 14:31N 47°35' W 003°01'0 0.0
2017-Aug-27 14:28N 47°35' W 003°02'0 0.5
2017-Aug-27 14:00N 47°35' W 003°01'2 4.7
2017-Aug-27 13:30N 47°33' W 003°00'3 5.2
2017-Aug-27 13:00N 47°30' W 002°59'2 4.0
2017-Aug-27 12:30N 47°29' W 002°58'1 2.8
2017-Aug-27 12:00N 47°27' W 002°57'4 0.2
2017-Aug-26 15:38N 47°24' W 003°02'1 5.9
2017-Aug-26 15:28N 47°25' W 003°03'2 3.1
2017-Aug-26 14:55N 47°25' W 003°05'1 1.5
2017-Aug-26 13:59N 47°26' W 003°06'0 0.8
2017-Aug-26 13:29N 47°27' W 003°07'1 2.3
2017-Aug-26 13:00N 47°27' W 003°08'1 2.1
2017-Aug-26 12:30N 47°28' W 003°09'2 2.5
2017-Aug-26 11:54N 47°29' W 003°10'1 1.6
2017-Aug-26 11:26N 47°30' W 003°10'1 3.1
2017-Aug-26 10:58N 47°31' W 003°11'2 3.4
2017-Aug-26 10:26N 47°33' W 003°12'1 2.8
2017-Aug-26 10:00N 47°34' W 003°13'1 2.8
2017-Aug-26 09:30N 47°36' W 003°13'1 2.4
2017-Aug-26 09:00N 47°37' W 003°13'3 5.1
2017-Aug-26 08:30N 47°39' W 003°12'0 0.5
2017-Aug-26 07:58N 47°40' W 003°12'0 0.0
2017-Aug-26 07:28N 47°40' W 003°12'0 0.0
2017-Aug-26 06:58N 47°40' W 003°12'0 0.0
2017-Aug-26 06:28N 47°40' W 003°12'0 0.0
2017-Aug-26 05:58N 47°40' W 003°12'0 0.0
2017-Aug-26 05:28N 47°40' W 003°12'0 0.0
2017-Aug-26 04:58N 47°40' W 003°12'0 0.0
2017-Aug-26 04:28N 47°40' W 003°12'0 0.0
2017-Aug-26 03:58N 47°40' W 003°12'0 0.0
2017-Aug-26 03:28N 47°40' W 003°12'0 0.0
2017-Aug-26 02:58N 47°40' W 003°12'0 0.0
2017-Aug-26 02:25N 47°40' W 003°12'0 0.0
2017-Aug-26 01:58N 47°40' W 003°12'0 0.0
2017-Aug-26 01:28N 47°40' W 003°12'0 0.0
2017-Aug-26 00:58N 47°40' W 003°12'0 0.0
2017-Aug-26 00:28N 47°40' W 003°12'0 0.0
2017-Aug-25 23:58N 47°40' W 003°12'0 0.0
2017-Aug-25 23:28N 47°40' W 003°12'0 0.0
2017-Aug-25 22:58N 47°40' W 003°12'0 0.0
2017-Aug-25 22:28N 47°40' W 003°12'0 0.0
2017-Aug-25 21:58N 47°40' W 003°12'0 0.0
2017-Aug-25 21:28N 47°40' W 003°12'0 0.0
2017-Aug-25 20:58N 47°40' W 003°12'0 0.0
2017-Aug-25 20:28N 47°40' W 003°12'0 0.0
2017-Aug-25 19:55N 47°40' W 003°12'0 0.0
2017-Aug-25 19:25N 47°40' W 003°12'0 0.0
2017-Aug-25 18:58N 47°40' W 003°12'0 0.0
2017-Aug-25 18:28N 47°40' W 003°12'0 0.0
2017-Aug-25 17:58N 47°40' W 003°12'0 0.0
2017-Aug-25 17:28N 47°40' W 003°12'0 0.0
2017-Aug-25 16:58N 47°40' W 003°12'0 0.0
2017-Aug-25 16:28N 47°40' W 003°12'1 2.6
2017-Aug-25 16:00N 47°38' W 003°13'3 7.0
2017-Aug-25 15:30N 47°38' W 003°18'3 6.8
2017-Aug-25 15:00N 47°36' W 003°22'1 1.6
2017-Aug-25 14:30N 47°36' W 003°21'5 4.9
2017-Aug-25 13:30N 47°36' W 003°14'3 6.7
2017-Aug-25 13:00N 47°33' W 003°11'3 6.8
2017-Aug-25 12:30N 47°30' W 003°09'2 5.0
2017-Aug-25 12:00N 47°28' W 003°07'2 4.0
2017-Aug-25 11:26N 47°27' W 003°04'2 3.7
2017-Aug-25 10:58N 47°28' W 003°02'2 3.4
2017-Aug-25 10:28N 47°30' W 003°02'1 1.3
2017-Aug-25 09:58N 47°30' W 003°01'1 1.1
2017-Aug-25 09:30N 47°31' W 003°01'1 1.7
2017-Aug-25 08:55N 47°32' W 003°01'2 4.6
2017-Aug-25 08:29N 47°34' W 003°01'2 0.1
2017-Aug-24 15:18N 47°35' W 003°01'0 0.0
2017-Aug-24 14:54N 47°35' W 003°01'0 0.0
2017-Aug-24 14:24N 47°35' W 003°01'0 0.0
2017-Aug-24 13:57N 47°35' W 003°01'0 0.0
2017-Aug-24 13:24N 47°35' W 003°01'0 0.0
2017-Aug-24 13:00N 47°35' W 003°01'1 1.4
2017-Aug-24 12:30N 47°35' W 003°01'3 5.4
2017-Aug-24 12:00N 47°32' W 002°59'3 5.5
2017-Aug-24 11:30N 47°30' W 002°58'3 3.0
2017-Aug-24 10:40N 47°27' W 002°57'1 2.5
2017-Aug-24 10:26N 47°27' W 002°58'  

Dump ship's entire track history